Terminal Aerodrome Forecast
Issued by NWS Sioux Falls, SD

Home | Current Version | Previous Version | Graphics & Text | Print | Product List | Glossary On
Versions: 1 2 3 4 5 6 7 8 9 10 11 12 13
000
FTUS43 KFSD 270959 AAA
TAFSUX
TAF AMD
KSUX 270959Z 2710/2806 32014KT P6SM BKN016 OVC027
      TEMPO 2710/2712 SCT015 OVC025
     FM271700 33013G18KT P6SM SCT040=

USA.gov is the U.S. government's official web portal to all federal, state and local government web resources and services.